Terminal Aerodrome Forecast
Issued by NWS

Home | Current Version | Previous Version | Text Only | Print | Product List | Glossary On
Versions: 1 2 3 4 5 6 7 8 9 10 11 12
036
FTUS42 KMLB 241725
TAFSUA
TAF
KSUA 241725Z 2418/2518 10010KT P6SM VCTS SCT035CB BKN100
      TEMPO 2418/2420 3SM TSRA BKN035CB
     FM242100 09013G18KT P6SM FEW040 SCT060
     FM250200 09009KT P6SM FEW040 SCT250
     FM251400 07013KT P6SM FEW025=

USA.gov is the U.S. government's official web portal to all federal, state and local government web resources and services.